sensor_id;sensor_type;location;lat;lon;timestamp;P1;durP1;ratioP1;P2;durP2;ratioP2
50267;SDS011;36153;50.960;6.220;2023-09-19T00:01:54;6.07;;;1.02;;
50267;SDS011;36153;50.960;6.220;2023-09-19T00:04:55;6.47;;;2.17;;
50267;SDS011;36153;50.960;6.220;2023-09-19T00:07:56;3.55;;;0.90;;
50267;SDS011;36153;50.960;6.220;2023-09-19T00:11:00;4.05;;;0.95;;
50267;SDS011;36153;50.960;6.220;2023-09-19T00:14:05;5.00;;;1.50;;
50267;SDS011;36153;50.960;6.220;2023-09-19T00:17:08;8.93;;;1.33;;
50267;SDS011;36153;50.960;6.220;2023-09-19T00:20:09;5.20;;;1.17;;
50267;SDS011;36153;50.960;6.220;2023-09-19T00:23:12;4.70;;;1.00;;
50267;SDS011;36153;50.960;6.220;2023-09-19T00:26:13;4.45;;;1.02;;
50267;SDS011;36153;50.960;6.220;2023-09-19T00:29:14;3.25;;;1.25;;
50267;SDS011;36153;50.960;6.220;2023-09-19T00:32:16;3.40;;;1.27;;
50267;SDS011;36153;50.960;6.220;2023-09-19T00:35:16;3.33;;;0.73;;
50267;SDS011;36153;50.960;6.220;2023-09-19T00:38:17;6.15;;;1.73;;
50267;SDS011;36153;50.960;6.220;2023-09-19T00:41:21;4.50;;;1.05;;
50267;SDS011;36153;50.960;6.220;2023-09-19T00:44:22;7.50;;;1.85;;
50267;SDS011;36153;50.960;6.220;2023-09-19T00:47:23;10.35;;;1.20;;
50267;SDS011;36153;50.960;6.220;2023-09-19T00:50:25;4.10;;;1.10;;
50267;SDS011;36153;50.960;6.220;2023-09-19T00:53:27;2.67;;;1.10;;
50267;SDS011;36153;50.960;6.220;2023-09-19T00:56:30;3.38;;;1.17;;
50267;SDS011;36153;50.960;6.220;2023-09-19T00:59:31;4.57;;;1.33;;
50267;SDS011;36153;50.960;6.220;2023-09-19T01:02:32;2.75;;;0.95;;
50267;SDS011;36153;50.960;6.220;2023-09-19T01:05:36;4.85;;;1.38;;
50267;SDS011;36153;50.960;6.220;2023-09-19T01:11:40;4.23;;;1.20;;
50267;SDS011;36153;50.960;6.220;2023-09-19T01:15:11;5.10;;;1.30;;
50267;SDS011;36153;50.960;6.220;2023-09-19T01:21:44;6.93;;;1.73;;
50267;SDS011;36153;50.960;6.220;2023-09-19T01:32:03;4.60;;;1.20;;
50267;SDS011;36153;50.960;6.220;2023-09-19T01:35:04;5.03;;;1.27;;
50267;SDS011;36153;50.960;6.220;2023-09-19T01:38:08;3.72;;;0.80;;
50267;SDS011;36153;50.960;6.220;2023-09-19T01:41:12;5.70;;;1.50;;
50267;SDS011;36153;50.960;6.220;2023-09-19T01:44:36;4.63;;;0.93;;
50267;SDS011;36153;50.960;6.220;2023-09-19T01:47:46;6.53;;;1.25;;
50267;SDS011;36153;50.960;6.220;2023-09-19T01:50:55;5.75;;;1.88;;
50267;SDS011;36153;50.960;6.220;2023-09-19T01:54:09;4.13;;;1.10;;
50267;SDS011;36153;50.960;6.220;2023-09-19T01:57:27;2.78;;;1.10;;
50267;SDS011;36153;50.960;6.220;2023-09-19T02:00:30;4.88;;;1.08;;
50267;SDS011;36153;50.960;6.220;2023-09-19T02:03:34;7.18;;;0.73;;
50267;SDS011;36153;50.960;6.220;2023-09-19T02:06:39;3.72;;;1.00;;
50267;SDS011;36153;50.960;6.220;2023-09-19T02:09:41;6.82;;;1.17;;
50267;SDS011;36153;50.960;6.220;2023-09-19T02:12:42;5.88;;;1.63;;
50267;SDS011;36153;50.960;6.220;2023-09-19T02:15:43;4.13;;;2.13;;
50267;SDS011;36153;50.960;6.220;2023-09-19T02:18:49;4.43;;;1.08;;
50267;SDS011;36153;50.960;6.220;2023-09-19T02:21:51;8.88;;;1.50;;
50267;SDS011;36153;50.960;6.220;2023-09-19T02:24:52;6.72;;;1.30;;
50267;SDS011;36153;50.960;6.220;2023-09-19T02:27:53;4.85;;;1.50;;
50267;SDS011;36153;50.960;6.220;2023-09-19T02:30:54;4.60;;;1.40;;
50267;SDS011;36153;50.960;6.220;2023-09-19T02:33:55;3.28;;;0.90;;
50267;SDS011;36153;50.960;6.220;2023-09-19T02:36:56;5.50;;;1.05;;
50267;SDS011;36153;50.960;6.220;2023-09-19T02:39:56;6.72;;;1.17;;
50267;SDS011;36153;50.960;6.220;2023-09-19T02:42:57;5.05;;;1.23;;
50267;SDS011;36153;50.960;6.220;2023-09-19T02:45:59;5.50;;;1.08;;
50267;SDS011;36153;50.960;6.220;2023-09-19T02:48:59;4.15;;;0.90;;
50267;SDS011;36153;50.960;6.220;2023-09-19T02:51:59;9.10;;;1.60;;
50267;SDS011;36153;50.960;6.220;2023-09-19T02:55:00;6.20;;;1.33;;
50267;SDS011;36153;50.960;6.220;2023-09-19T02:58:01;5.35;;;1.20;;
50267;SDS011;36153;50.960;6.220;2023-09-19T03:01:08;3.15;;;1.00;;
50267;SDS011;36153;50.960;6.220;2023-09-19T03:04:11;3.00;;;1.40;;
50267;SDS011;36153;50.960;6.220;2023-09-19T03:07:12;4.38;;;1.55;;
50267;SDS011;36153;50.960;6.220;2023-09-19T03:10:13;8.18;;;1.42;;
50267;SDS011;36153;50.960;6.220;2023-09-19T03:13:15;5.93;;;1.35;;
50267;SDS011;36153;50.960;6.220;2023-09-19T03:16:15;5.05;;;1.73;;
50267;SDS011;36153;50.960;6.220;2023-09-19T03:19:16;5.75;;;1.30;;
50267;SDS011;36153;50.960;6.220;2023-09-19T03:22:17;3.00;;;0.98;;
50267;SDS011;36153;50.960;6.220;2023-09-19T03:25:18;4.03;;;1.30;;
50267;SDS011;36153;50.960;6.220;2023-09-19T03:28:19;4.32;;;1.08;;
50267;SDS011;36153;50.960;6.220;2023-09-19T03:31:21;6.35;;;0.95;;
50267;SDS011;36153;50.960;6.220;2023-09-19T03:34:22;8.95;;;1.63;;
50267;SDS011;36153;50.960;6.220;2023-09-19T03:37:22;7.30;;;1.02;;
50267;SDS011;36153;50.960;6.220;2023-09-19T03:40:22;3.75;;;1.23;;
50267;SDS011;36153;50.960;6.220;2023-09-19T03:43:25;7.47;;;2.00;;
50267;SDS011;36153;50.960;6.220;2023-09-19T03:46:25;4.55;;;1.33;;
50267;SDS011;36153;50.960;6.220;2023-09-19T03:49:26;2.70;;;1.10;;
50267;SDS011;36153;50.960;6.220;2023-09-19T03:52:27;4.97;;;1.25;;
50267;SDS011;36153;50.960;6.220;2023-09-19T03:55:27;2.40;;;0.82;;
50267;SDS011;36153;50.960;6.220;2023-09-19T03:58:28;8.40;;;1.30;;
50267;SDS011;36153;50.960;6.220;2023-09-19T04:01:28;9.35;;;2.33;;
50267;SDS011;36153;50.960;6.220;2023-09-19T04:04:30;4.45;;;0.93;;
50267;SDS011;36153;50.960;6.220;2023-09-19T04:07:31;3.35;;;0.90;;
50267;SDS011;36153;50.960;6.220;2023-09-19T04:10:31;5.07;;;1.67;;
50267;SDS011;36153;50.960;6.220;2023-09-19T04:13:32;6.03;;;1.20;;
50267;SDS011;36153;50.960;6.220;2023-09-19T04:16:32;5.78;;;1.40;;
50267;SDS011;36153;50.960;6.220;2023-09-19T04:19:33;6.35;;;1.08;;
50267;SDS011;36153;50.960;6.220;2023-09-19T04:22:33;8.50;;;1.63;;
50267;SDS011;36153;50.960;6.220;2023-09-19T04:25:34;6.22;;;1.00;;
50267;SDS011;36153;50.960;6.220;2023-09-19T04:28:34;4.00;;;1.00;;
50267;SDS011;36153;50.960;6.220;2023-09-19T04:31:38;5.53;;;1.00;;
50267;SDS011;36153;50.960;6.220;2023-09-19T04:34:40;7.03;;;1.20;;
50267;SDS011;36153;50.960;6.220;2023-09-19T04:37:40;3.38;;;0.80;;
50267;SDS011;36153;50.960;6.220;2023-09-19T04:40:43;4.57;;;0.88;;
50267;SDS011;36153;50.960;6.220;2023-09-19T04:43:44;4.72;;;1.30;;
50267;SDS011;36153;50.960;6.220;2023-09-19T04:46:44;5.60;;;1.13;;
50267;SDS011;36153;50.960;6.220;2023-09-19T04:49:46;4.88;;;0.80;;
50267;SDS011;36153;50.960;6.220;2023-09-19T04:52:49;4.40;;;1.33;;
50267;SDS011;36153;50.960;6.220;2023-09-19T04:55:51;5.10;;;1.42;;
50267;SDS011;36153;50.960;6.220;2023-09-19T04:58:52;6.10;;;1.40;;
50267;SDS011;36153;50.960;6.220;2023-09-19T05:01:54;8.73;;;1.35;;
50267;SDS011;36153;50.960;6.220;2023-09-19T05:04:54;5.93;;;1.13;;
50267;SDS011;36153;50.960;6.220;2023-09-19T05:07:54;3.92;;;0.80;;
50267;SDS011;36153;50.960;6.220;2023-09-19T05:10:55;5.78;;;1.13;;
50267;SDS011;36153;50.960;6.220;2023-09-19T05:13:56;8.90;;;1.00;;
50267;SDS011;36153;50.960;6.220;2023-09-19T05:16:56;7.38;;;1.05;;
50267;SDS011;36153;50.960;6.220;2023-09-19T05:19:57;7.45;;;1.52;;
50267;SDS011;36153;50.960;6.220;2023-09-19T05:23:17;6.57;;;1.02;;
50267;SDS011;36153;50.960;6.220;2023-09-19T05:26:21;6.07;;;1.38;;
50267;SDS011;36153;50.960;6.220;2023-09-19T05:29:21;7.13;;;1.25;;
50267;SDS011;36153;50.960;6.220;2023-09-19T05:32:21;9.95;;;2.10;;
50267;SDS011;36153;50.960;6.220;2023-09-19T05:35:22;6.35;;;1.10;;
50267;SDS011;36153;50.960;6.220;2023-09-19T05:38:24;5.28;;;1.00;;
50267;SDS011;36153;50.960;6.220;2023-09-19T05:41:26;4.97;;;1.48;;
50267;SDS011;36153;50.960;6.220;2023-09-19T05:44:26;7.78;;;1.42;;
50267;SDS011;36153;50.960;6.220;2023-09-19T05:47:27;7.40;;;1.45;;
50267;SDS011;36153;50.960;6.220;2023-09-19T05:50:27;7.88;;;1.10;;
50267;SDS011;36153;50.960;6.220;2023-09-19T05:53:28;7.07;;;1.80;;
50267;SDS011;36153;50.960;6.220;2023-09-19T05:56:28;6.95;;;1.17;;
50267;SDS011;36153;50.960;6.220;2023-09-19T05:59:29;7.80;;;1.20;;
50267;SDS011;36153;50.960;6.220;2023-09-19T06:02:30;8.85;;;1.33;;
50267;SDS011;36153;50.960;6.220;2023-09-19T06:05:30;5.72;;;1.00;;
50267;SDS011;36153;50.960;6.220;2023-09-19T06:08:32;7.97;;;1.42;;
50267;SDS011;36153;50.960;6.220;2023-09-19T06:11:36;6.47;;;1.33;;
50267;SDS011;36153;50.960;6.220;2023-09-19T06:14:37;4.75;;;1.23;;
50267;SDS011;36153;50.960;6.220;2023-09-19T06:17:41;8.73;;;1.27;;
50267;SDS011;36153;50.960;6.220;2023-09-19T06:20:42;6.00;;;0.93;;
50267;SDS011;36153;50.960;6.220;2023-09-19T06:23:44;8.27;;;1.70;;
50267;SDS011;36153;50.960;6.220;2023-09-19T06:26:45;3.70;;;0.95;;
50267;SDS011;36153;50.960;6.220;2023-09-19T06:29:45;11.55;;;1.23;;
50267;SDS011;36153;50.960;6.220;2023-09-19T06:32:46;2.30;;;1.05;;
50267;SDS011;36153;50.960;6.220;2023-09-19T06:35:49;5.00;;;0.70;;
50267;SDS011;36153;50.960;6.220;2023-09-19T06:38:53;9.02;;;1.30;;
50267;SDS011;36153;50.960;6.220;2023-09-19T06:41:54;3.78;;;0.90;;
50267;SDS011;36153;50.960;6.220;2023-09-19T06:44:54;5.07;;;1.42;;
50267;SDS011;36153;50.960;6.220;2023-09-19T06:47:56;6.00;;;1.17;;
50267;SDS011;36153;50.960;6.220;2023-09-19T06:50:57;7.68;;;1.80;;
50267;SDS011;36153;50.960;6.220;2023-09-19T06:54:08;6.50;;;1.27;;
50267;SDS011;36153;50.960;6.220;2023-09-19T06:57:08;3.78;;;1.13;;
50267;SDS011;36153;50.960;6.220;2023-09-19T07:00:10;4.05;;;1.13;;
50267;SDS011;36153;50.960;6.220;2023-09-19T07:03:24;5.22;;;1.23;;
50267;SDS011;36153;50.960;6.220;2023-09-19T07:06:26;6.25;;;1.70;;
50267;SDS011;36153;50.960;6.220;2023-09-19T07:09:28;3.53;;;1.05;;
50267;SDS011;36153;50.960;6.220;2023-09-19T07:12:28;7.38;;;1.20;;
50267;SDS011;36153;50.960;6.220;2023-09-19T07:15:29;4.15;;;1.33;;
50267;SDS011;36153;50.960;6.220;2023-09-19T07:18:33;4.57;;;1.10;;
50267;SDS011;36153;50.960;6.220;2023-09-19T07:21:33;6.20;;;1.45;;
50267;SDS011;36153;50.960;6.220;2023-09-19T07:24:35;7.50;;;1.13;;
50267;SDS011;36153;50.960;6.220;2023-09-19T07:27:36;6.38;;;1.00;;
50267;SDS011;36153;50.960;6.220;2023-09-19T07:30:37;6.93;;;1.13;;
50267;SDS011;36153;50.960;6.220;2023-09-19T07:33:37;7.05;;;2.00;;
50267;SDS011;36153;50.960;6.220;2023-09-19T07:36:37;3.72;;;0.88;;
50267;SDS011;36153;50.960;6.220;2023-09-19T07:39:38;4.88;;;1.23;;
50267;SDS011;36153;50.960;6.220;2023-09-19T07:42:41;9.85;;;1.58;;
50267;SDS011;36153;50.960;6.220;2023-09-19T07:45:44;7.35;;;1.75;;
50267;SDS011;36153;50.960;6.220;2023-09-19T07:48:44;5.97;;;1.73;;
50267;SDS011;36153;50.960;6.220;2023-09-19T07:51:48;4.53;;;0.98;;
50267;SDS011;36153;50.960;6.220;2023-09-19T07:54:49;6.28;;;1.02;;
50267;SDS011;36153;50.960;6.220;2023-09-19T07:57:49;5.68;;;1.40;;
50267;SDS011;36153;50.960;6.220;2023-09-19T08:00:49;5.28;;;1.20;;
50267;SDS011;36153;50.960;6.220;2023-09-19T08:03:50;4.85;;;1.23;;
50267;SDS011;36153;50.960;6.220;2023-09-19T08:06:50;8.13;;;0.93;;
50267;SDS011;36153;50.960;6.220;2023-09-19T08:09:52;5.40;;;1.23;;
50267;SDS011;36153;50.960;6.220;2023-09-19T08:12:52;5.03;;;1.00;;
50267;SDS011;36153;50.960;6.220;2023-09-19T08:15:58;2.15;;;1.02;;
50267;SDS011;36153;50.960;6.220;2023-09-19T08:18:58;5.88;;;1.38;;
50267;SDS011;36153;50.960;6.220;2023-09-19T08:21:59;7.22;;;1.13;;
50267;SDS011;36153;50.960;6.220;2023-09-19T08:25:01;3.15;;;1.40;;
50267;SDS011;36153;50.960;6.220;2023-09-19T08:28:01;3.67;;;1.10;;
50267;SDS011;36153;50.960;6.220;2023-09-19T08:31:08;4.18;;;1.30;;
50267;SDS011;36153;50.960;6.220;2023-09-19T08:34:09;1.92;;;0.85;;
50267;SDS011;36153;50.960;6.220;2023-09-19T08:37:09;4.25;;;1.08;;
50267;SDS011;36153;50.960;6.220;2023-09-19T08:40:10;7.25;;;1.38;;
50267;SDS011;36153;50.960;6.220;2023-09-19T08:43:13;6.45;;;1.08;;
50267;SDS011;36153;50.960;6.220;2023-09-19T08:46:16;9.05;;;1.20;;
50267;SDS011;36153;50.960;6.220;2023-09-19T08:49:24;3.88;;;0.98;;
50267;SDS011;36153;50.960;6.220;2023-09-19T08:52:37;4.63;;;1.33;;
50267;SDS011;36153;50.960;6.220;2023-09-19T08:55:41;4.93;;;0.88;;
50267;SDS011;36153;50.960;6.220;2023-09-19T09:02:02;5.97;;;0.93;;
50267;SDS011;36153;50.960;6.220;2023-09-19T09:05:04;4.57;;;0.93;;
50267;SDS011;36153;50.960;6.220;2023-09-19T09:08:05;5.07;;;1.23;;
50267;SDS011;36153;50.960;6.220;2023-09-19T09:11:06;3.28;;;1.10;;
50267;SDS011;36153;50.960;6.220;2023-09-19T09:14:08;6.18;;;1.55;;
50267;SDS011;36153;50.960;6.220;2023-09-19T09:17:08;4.13;;;1.02;;
50267;SDS011;36153;50.960;6.220;2023-09-19T09:20:10;3.67;;;0.90;;
50267;SDS011;36153;50.960;6.220;2023-09-19T09:23:11;5.85;;;1.10;;
50267;SDS011;36153;50.960;6.220;2023-09-19T09:26:13;3.17;;;1.00;;
50267;SDS011;36153;50.960;6.220;2023-09-19T09:29:14;5.78;;;1.23;;
50267;SDS011;36153;50.960;6.220;2023-09-19T09:32:16;6.40;;;1.10;;
50267;SDS011;36153;50.960;6.220;2023-09-19T09:35:37;4.72;;;1.05;;
50267;SDS011;36153;50.960;6.220;2023-09-19T09:38:47;6.03;;;1.40;;
50267;SDS011;36153;50.960;6.220;2023-09-19T09:41:55;5.88;;;1.90;;
50267;SDS011;36153;50.960;6.220;2023-09-19T09:45:15;4.60;;;1.15;;
50267;SDS011;36153;50.960;6.220;2023-09-19T09:48:24;3.72;;;1.13;;
50267;SDS011;36153;50.960;6.220;2023-09-19T09:51:31;5.55;;;1.10;;
50267;SDS011;36153;50.960;6.220;2023-09-19T09:54:33;5.22;;;1.10;;
50267;SDS011;36153;50.960;6.220;2023-09-19T09:57:38;5.53;;;1.13;;
50267;SDS011;36153;50.960;6.220;2023-09-19T10:00:52;5.18;;;1.00;;
50267;SDS011;36153;50.960;6.220;2023-09-19T10:03:57;7.45;;;1.10;;
50267;SDS011;36153;50.960;6.220;2023-09-19T10:06:58;7.32;;;1.23;;
50267;SDS011;36153;50.960;6.220;2023-09-19T10:10:05;6.97;;;1.20;;
50267;SDS011;36153;50.960;6.220;2023-09-19T10:13:21;3.75;;;1.02;;
50267;SDS011;36153;50.960;6.220;2023-09-19T10:16:28;4.03;;;1.10;;
50267;SDS011;36153;50.960;6.220;2023-09-19T10:19:36;3.38;;;1.13;;
50267;SDS011;36153;50.960;6.220;2023-09-19T10:22:46;4.00;;;1.05;;
50267;SDS011;36153;50.960;6.220;2023-09-19T10:25:57;5.72;;;1.05;;
50267;SDS011;36153;50.960;6.220;2023-09-19T10:29:01;2.80;;;1.17;;
50267;SDS011;36153;50.960;6.220;2023-09-19T10:32:07;7.25;;;1.30;;
50267;SDS011;36153;50.960;6.220;2023-09-19T10:35:09;3.97;;;1.08;;
50267;SDS011;36153;50.960;6.220;2023-09-19T10:38:13;6.32;;;0.90;;
50267;SDS011;36153;50.960;6.220;2023-09-19T10:41:17;4.05;;;1.10;;
50267;SDS011;36153;50.960;6.220;2023-09-19T10:44:23;3.42;;;1.15;;
50267;SDS011;36153;50.960;6.220;2023-09-19T10:47:25;4.40;;;1.23;;
50267;SDS011;36153;50.960;6.220;2023-09-19T10:50:27;5.72;;;0.95;;
50267;SDS011;36153;50.960;6.220;2023-09-19T10:53:39;6.82;;;1.02;;
50267;SDS011;36153;50.960;6.220;2023-09-19T10:56:48;3.35;;;1.23;;
50267;SDS011;36153;50.960;6.220;2023-09-19T11:03:23;4.80;;;1.42;;
50267;SDS011;36153;50.960;6.220;2023-09-19T11:06:29;7.53;;;1.10;;
50267;SDS011;36153;50.960;6.220;2023-09-19T11:09:46;4.82;;;1.13;;
50267;SDS011;36153;50.960;6.220;2023-09-19T11:12:54;2.53;;;0.77;;
50267;SDS011;36153;50.960;6.220;2023-09-19T11:18:59;2.70;;;1.08;;
50267;SDS011;36153;50.960;6.220;2023-09-19T11:22:01;7.63;;;1.88;;
50267;SDS011;36153;50.960;6.220;2023-09-19T11:25:33;4.90;;;1.15;;
50267;SDS011;36153;50.960;6.220;2023-09-19T11:28:47;4.40;;;1.42;;
50267;SDS011;36153;50.960;6.220;2023-09-19T11:31:47;6.72;;;1.10;;
50267;SDS011;36153;50.960;6.220;2023-09-19T11:34:49;4.07;;;1.30;;
50267;SDS011;36153;50.960;6.220;2023-09-19T11:41:11;4.10;;;0.90;;
50267;SDS011;36153;50.960;6.220;2023-09-19T11:47:25;3.47;;;0.87;;
50267;SDS011;36153;50.960;6.220;2023-09-19T11:50:26;5.43;;;0.93;;
50267;SDS011;36153;50.960;6.220;2023-09-19T11:53:31;3.72;;;1.20;;
50267;SDS011;36153;50.960;6.220;2023-09-19T11:56:38;3.33;;;0.63;;
50267;SDS011;36153;50.960;6.220;2023-09-19T11:59:41;4.50;;;1.00;;
50267;SDS011;36153;50.960;6.220;2023-09-19T12:02:42;4.03;;;1.20;;
50267;SDS011;36153;50.960;6.220;2023-09-19T12:05:47;5.07;;;1.20;;
50267;SDS011;36153;50.960;6.220;2023-09-19T12:08:48;4.80;;;0.85;;
50267;SDS011;36153;50.960;6.220;2023-09-19T12:11:50;3.58;;;0.90;;
50267;SDS011;36153;50.960;6.220;2023-09-19T12:14:51;6.35;;;1.00;;
50267;SDS011;36153;50.960;6.220;2023-09-19T12:17:52;6.15;;;1.23;;
50267;SDS011;36153;50.960;6.220;2023-09-19T12:20:54;4.43;;;0.82;;
50267;SDS011;36153;50.960;6.220;2023-09-19T12:23:59;2.95;;;0.60;;
50267;SDS011;36153;50.960;6.220;2023-09-19T12:27:02;1.77;;;0.80;;
50267;SDS011;36153;50.960;6.220;2023-09-19T12:30:07;2.78;;;0.90;;
50267;SDS011;36153;50.960;6.220;2023-09-19T12:33:19;3.53;;;0.60;;
50267;SDS011;36153;50.960;6.220;2023-09-19T12:36:24;5.07;;;1.05;;
50267;SDS011;36153;50.960;6.220;2023-09-19T12:39:30;3.80;;;0.70;;
50267;SDS011;36153;50.960;6.220;2023-09-19T12:42:31;4.95;;;0.80;;
50267;SDS011;36153;50.960;6.220;2023-09-19T12:45:35;2.17;;;0.65;;
50267;SDS011;36153;50.960;6.220;2023-09-19T12:48:37;2.25;;;0.52;;
50267;SDS011;36153;50.960;6.220;2023-09-19T12:51:39;5.78;;;0.90;;
50267;SDS011;36153;50.960;6.220;2023-09-19T12:54:39;1.92;;;0.80;;
50267;SDS011;36153;50.960;6.220;2023-09-19T12:57:40;2.50;;;0.63;;
50267;SDS011;36153;50.960;6.220;2023-09-19T13:00:41;4.60;;;0.90;;
50267;SDS011;36153;50.960;6.220;2023-09-19T13:03:44;2.22;;;0.60;;
50267;SDS011;36153;50.960;6.220;2023-09-19T13:06:46;1.75;;;0.60;;
50267;SDS011;36153;50.960;6.220;2023-09-19T13:10:10;3.35;;;0.60;;
50267;SDS011;36153;50.960;6.220;2023-09-19T13:16:25;1.88;;;0.50;;
50267;SDS011;36153;50.960;6.220;2023-09-19T13:19:45;3.20;;;0.60;;
50267;SDS011;36153;50.960;6.220;2023-09-19T13:22:49;2.30;;;0.50;;
50267;SDS011;36153;50.960;6.220;2023-09-19T13:25:53;1.23;;;0.40;;
50267;SDS011;36153;50.960;6.220;2023-09-19T13:28:54;1.58;;;0.57;;
50267;SDS011;36153;50.960;6.220;2023-09-19T13:31:54;2.35;;;0.60;;
50267;SDS011;36153;50.960;6.220;2023-09-19T13:34:55;3.33;;;0.65;;
50267;SDS011;36153;50.960;6.220;2023-09-19T13:37:55;1.92;;;0.45;;
50267;SDS011;36153;50.960;6.220;2023-09-19T13:40:55;0.77;;;0.30;;
50267;SDS011;36153;50.960;6.220;2023-09-19T13:43:56;2.47;;;0.55;;
50267;SDS011;36153;50.960;6.220;2023-09-19T13:46:57;3.80;;;0.60;;
50267;SDS011;36153;50.960;6.220;2023-09-19T13:49:57;3.10;;;0.50;;
50267;SDS011;36153;50.960;6.220;2023-09-19T13:52:57;3.25;;;0.70;;
50267;SDS011;36153;50.960;6.220;2023-09-19T13:56:00;2.85;;;0.65;;
50267;SDS011;36153;50.960;6.220;2023-09-19T13:59:00;3.95;;;0.82;;
50267;SDS011;36153;50.960;6.220;2023-09-19T14:02:04;2.38;;;0.60;;
50267;SDS011;36153;50.960;6.220;2023-09-19T14:05:05;4.10;;;0.40;;
50267;SDS011;36153;50.960;6.220;2023-09-19T14:08:06;2.25;;;0.50;;
50267;SDS011;36153;50.960;6.220;2023-09-19T14:11:07;2.28;;;0.40;;
50267;SDS011;36153;50.960;6.220;2023-09-19T14:14:08;5.60;;;0.50;;
50267;SDS011;36153;50.960;6.220;2023-09-19T14:17:08;1.10;;;0.43;;
50267;SDS011;36153;50.960;6.220;2023-09-19T14:20:09;2.85;;;0.50;;
50267;SDS011;36153;50.960;6.220;2023-09-19T14:23:10;1.42;;;0.43;;
50267;SDS011;36153;50.960;6.220;2023-09-19T14:26:10;1.45;;;0.52;;
50267;SDS011;36153;50.960;6.220;2023-09-19T14:29:11;1.55;;;0.30;;
50267;SDS011;36153;50.960;6.220;2023-09-19T14:32:12;2.03;;;0.40;;
50267;SDS011;36153;50.960;6.220;2023-09-19T14:35:12;1.60;;;0.30;;
50267;SDS011;36153;50.960;6.220;2023-09-19T14:38:14;1.30;;;0.47;;
50267;SDS011;36153;50.960;6.220;2023-09-19T14:41:14;2.33;;;0.52;;
50267;SDS011;36153;50.960;6.220;2023-09-19T14:44:14;1.90;;;0.40;;
50267;SDS011;36153;50.960;6.220;2023-09-19T14:47:17;1.17;;;0.30;;
50267;SDS011;36153;50.960;6.220;2023-09-19T14:50:19;1.17;;;0.30;;
50267;SDS011;36153;50.960;6.220;2023-09-19T14:53:19;2.33;;;0.40;;
50267;SDS011;36153;50.960;6.220;2023-09-19T14:56:20;1.50;;;0.32;;
50267;SDS011;36153;50.960;6.220;2023-09-19T14:59:21;3.08;;;0.20;;
50267;SDS011;36153;50.960;6.220;2023-09-19T15:02:21;1.30;;;0.40;;
50267;SDS011;36153;50.960;6.220;2023-09-19T15:05:22;1.30;;;0.40;;
50267;SDS011;36153;50.960;6.220;2023-09-19T15:08:22;2.40;;;0.47;;
50267;SDS011;36153;50.960;6.220;2023-09-19T15:11:23;1.38;;;0.30;;
50267;SDS011;36153;50.960;6.220;2023-09-19T15:14:23;1.65;;;0.30;;
50267;SDS011;36153;50.960;6.220;2023-09-19T15:17:25;0.90;;;0.30;;
50267;SDS011;36153;50.960;6.220;2023-09-19T15:20:25;2.03;;;0.60;;
50267;SDS011;36153;50.960;6.220;2023-09-19T15:23:26;2.90;;;0.52;;
50267;SDS011;36153;50.960;6.220;2023-09-19T15:26:26;2.75;;;1.17;;
50267;SDS011;36153;50.960;6.220;2023-09-19T15:29:27;1.38;;;0.52;;
50267;SDS011;36153;50.960;6.220;2023-09-19T15:32:27;1.13;;;0.22;;
50267;SDS011;36153;50.960;6.220;2023-09-19T15:35:28;2.97;;;0.68;;
50267;SDS011;36153;50.960;6.220;2023-09-19T15:38:28;2.15;;;0.40;;
50267;SDS011;36153;50.960;6.220;2023-09-19T15:41:30;1.08;;;0.30;;
50267;SDS011;36153;50.960;6.220;2023-09-19T15:44:38;1.20;;;0.50;;
50267;SDS011;36153;50.960;6.220;2023-09-19T15:47:38;1.48;;;0.47;;
50267;SDS011;36153;50.960;6.220;2023-09-19T15:50:39;1.35;;;0.60;;
50267;SDS011;36153;50.960;6.220;2023-09-19T15:56:47;1.48;;;0.28;;
50267;SDS011;36153;50.960;6.220;2023-09-19T15:59:48;2.85;;;0.30;;
50267;SDS011;36153;50.960;6.220;2023-09-19T16:02:49;7.20;;;0.88;;
50267;SDS011;36153;50.960;6.220;2023-09-19T16:05:50;1.27;;;0.50;;
50267;SDS011;36153;50.960;6.220;2023-09-19T16:08:52;2.58;;;0.43;;
50267;SDS011;36153;50.960;6.220;2023-09-19T16:11:55;2.17;;;0.40;;
50267;SDS011;36153;50.960;6.220;2023-09-19T16:14:56;2.15;;;0.38;;
50267;SDS011;36153;50.960;6.220;2023-09-19T16:17:56;3.70;;;0.75;;
50267;SDS011;36153;50.960;6.220;2023-09-19T16:21:03;1.10;;;0.25;;
50267;SDS011;36153;50.960;6.220;2023-09-19T16:24:04;3.65;;;0.70;;
50267;SDS011;36153;50.960;6.220;2023-09-19T16:27:04;1.85;;;0.28;;
50267;SDS011;36153;50.960;6.220;2023-09-19T16:30:06;3.13;;;0.57;;
50267;SDS011;36153;50.960;6.220;2023-09-19T16:33:09;6.90;;;1.08;;
50267;SDS011;36153;50.960;6.220;2023-09-19T16:36:12;3.78;;;0.50;;
50267;SDS011;36153;50.960;6.220;2023-09-19T16:39:13;1.85;;;0.40;;
50267;SDS011;36153;50.960;6.220;2023-09-19T16:42:14;1.42;;;0.32;;
50267;SDS011;36153;50.960;6.220;2023-09-19T16:45:16;4.32;;;0.60;;
50267;SDS011;36153;50.960;6.220;2023-09-19T16:48:16;1.10;;;0.22;;
50267;SDS011;36153;50.960;6.220;2023-09-19T16:51:16;1.20;;;0.40;;
50267;SDS011;36153;50.960;6.220;2023-09-19T16:54:17;1.83;;;0.50;;
50267;SDS011;36153;50.960;6.220;2023-09-19T16:57:17;2.55;;;0.60;;
50267;SDS011;36153;50.960;6.220;2023-09-19T17:00:18;2.25;;;0.75;;
50267;SDS011;36153;50.960;6.220;2023-09-19T17:03:19;1.15;;;0.38;;
50267;SDS011;36153;50.960;6.220;2023-09-19T17:06:20;2.90;;;0.43;;
50267;SDS011;36153;50.960;6.220;2023-09-19T17:09:22;2.72;;;0.70;;
50267;SDS011;36153;50.960;6.220;2023-09-19T17:12:22;1.00;;;0.40;;
50267;SDS011;36153;50.960;6.220;2023-09-19T17:15:22;1.63;;;0.40;;
50267;SDS011;36153;50.960;6.220;2023-09-19T17:18:24;3.60;;;0.70;;
50267;SDS011;36153;50.960;6.220;2023-09-19T17:21:25;1.92;;;0.45;;
50267;SDS011;36153;50.960;6.220;2023-09-19T17:24:26;3.03;;;0.32;;
50267;SDS011;36153;50.960;6.220;2023-09-19T17:27:26;3.03;;;0.63;;
50267;SDS011;36153;50.960;6.220;2023-09-19T17:30:27;1.50;;;0.63;;
50267;SDS011;36153;50.960;6.220;2023-09-19T17:33:28;3.17;;;0.60;;
50267;SDS011;36153;50.960;6.220;2023-09-19T17:36:28;1.08;;;0.45;;
50267;SDS011;36153;50.960;6.220;2023-09-19T17:39:32;6.15;;;0.52;;
50267;SDS011;36153;50.960;6.220;2023-09-19T17:42:32;3.08;;;0.77;;
50267;SDS011;36153;50.960;6.220;2023-09-19T17:45:33;4.07;;;0.50;;
50267;SDS011;36153;50.960;6.220;2023-09-19T17:48:34;0.80;;;0.32;;
50267;SDS011;36153;50.960;6.220;2023-09-19T17:51:34;3.05;;;0.63;;
50267;SDS011;36153;50.960;6.220;2023-09-19T17:54:34;4.88;;;0.60;;
50267;SDS011;36153;50.960;6.220;2023-09-19T17:57:35;4.30;;;0.60;;
50267;SDS011;36153;50.960;6.220;2023-09-19T18:00:35;2.78;;;0.50;;
50267;SDS011;36153;50.960;6.220;2023-09-19T18:03:37;2.08;;;0.52;;
50267;SDS011;36153;50.960;6.220;2023-09-19T18:06:38;1.55;;;0.43;;
50267;SDS011;36153;50.960;6.220;2023-09-19T18:09:43;2.58;;;0.60;;
50267;SDS011;36153;50.960;6.220;2023-09-19T18:12:44;1.33;;;0.65;;
50267;SDS011;36153;50.960;6.220;2023-09-19T18:15:44;4.90;;;0.80;;
50267;SDS011;36153;50.960;6.220;2023-09-19T18:18:45;2.55;;;0.80;;
50267;SDS011;36153;50.960;6.220;2023-09-19T18:21:49;2.20;;;0.70;;
50267;SDS011;36153;50.960;6.220;2023-09-19T18:24:50;1.88;;;0.65;;
50267;SDS011;36153;50.960;6.220;2023-09-19T18:27:51;5.93;;;1.30;;
50267;SDS011;36153;50.960;6.220;2023-09-19T18:30:52;2.75;;;1.02;;
50267;SDS011;36153;50.960;6.220;2023-09-19T18:33:53;2.83;;;0.50;;
50267;SDS011;36153;50.960;6.220;2023-09-19T18:36:54;4.82;;;0.68;;
50267;SDS011;36153;50.960;6.220;2023-09-19T18:39:54;1.25;;;0.40;;
50267;SDS011;36153;50.960;6.220;2023-09-19T18:42:55;1.90;;;0.52;;
50267;SDS011;36153;50.960;6.220;2023-09-19T18:45:56;2.55;;;0.77;;
50267;SDS011;36153;50.960;6.220;2023-09-19T18:48:56;4.90;;;1.02;;
50267;SDS011;36153;50.960;6.220;2023-09-19T18:51:57;4.90;;;1.00;;
50267;SDS011;36153;50.960;6.220;2023-09-19T18:54:57;2.97;;;0.80;;
50267;SDS011;36153;50.960;6.220;2023-09-19T18:57:58;2.58;;;0.82;;